sensor_id;sensor_type;location;lat;lon;timestamp;P1;durP1;ratioP1;P2;durP2;ratioP2
79027;SDS011;68427;48.476;19.102;2023-10-19T00:00:31;10.48;;;9.40;;
79027;SDS011;68427;48.476;19.102;2023-10-19T00:02:59;11.05;;;7.78;;
79027;SDS011;68427;48.476;19.102;2023-10-19T00:05:27;10.38;;;5.47;;
79027;SDS011;68427;48.476;19.102;2023-10-19T00:07:54;11.27;;;9.02;;
79027;SDS011;68427;48.476;19.102;2023-10-19T00:10:23;12.98;;;11.75;;
79027;SDS011;68427;48.476;19.102;2023-10-19T00:12:54;15.02;;;12.27;;
79027;SDS011;68427;48.476;19.102;2023-10-19T00:15:29;14.40;;;7.93;;
79027;SDS011;68427;48.476;19.102;2023-10-19T00:17:57;14.88;;;7.57;;
79027;SDS011;68427;48.476;19.102;2023-10-19T00:20:31;12.52;;;11.07;;
79027;SDS011;68427;48.476;19.102;2023-10-19T00:23:23;11.32;;;7.13;;
79027;SDS011;68427;48.476;19.102;2023-10-19T00:26:01;14.13;;;10.90;;
79027;SDS011;68427;48.476;19.102;2023-10-19T00:28:40;12.73;;;7.70;;
79027;SDS011;68427;48.476;19.102;2023-10-19T00:31:06;14.48;;;6.95;;
79027;SDS011;68427;48.476;19.102;2023-10-19T00:33:36;15.07;;;7.65;;
79027;SDS011;68427;48.476;19.102;2023-10-19T00:36:04;15.48;;;7.82;;
79027;SDS011;68427;48.476;19.102;2023-10-19T00:38:33;13.25;;;7.38;;
79027;SDS011;68427;48.476;19.102;2023-10-19T00:40:58;17.10;;;15.43;;
79027;SDS011;68427;48.476;19.102;2023-10-19T00:43:35;15.18;;;10.07;;
79027;SDS011;68427;48.476;19.102;2023-10-19T00:46:11;13.52;;;8.25;;
79027;SDS011;68427;48.476;19.102;2023-10-19T00:48:44;16.63;;;14.82;;
79027;SDS011;68427;48.476;19.102;2023-10-19T00:51:13;16.25;;;8.32;;
79027;SDS011;68427;48.476;19.102;2023-10-19T00:53:56;14.52;;;9.63;;
79027;SDS011;68427;48.476;19.102;2023-10-19T00:56:26;18.17;;;12.40;;
79027;SDS011;68427;48.476;19.102;2023-10-19T00:58:56;13.60;;;12.15;;
79027;SDS011;68427;48.476;19.102;2023-10-19T01:01:29;17.77;;;9.57;;
79027;SDS011;68427;48.476;19.102;2023-10-19T01:03:55;16.00;;;8.45;;
79027;SDS011;68427;48.476;19.102;2023-10-19T01:06:24;14.27;;;8.57;;
79027;SDS011;68427;48.476;19.102;2023-10-19T01:08:50;16.98;;;9.32;;
79027;SDS011;68427;48.476;19.102;2023-10-19T01:11:16;17.75;;;8.95;;
79027;SDS011;68427;48.476;19.102;2023-10-19T01:13:47;16.15;;;8.68;;
79027;SDS011;68427;48.476;19.102;2023-10-19T01:16:13;13.77;;;8.40;;
79027;SDS011;68427;48.476;19.102;2023-10-19T01:18:49;16.25;;;14.65;;
79027;SDS011;68427;48.476;19.102;2023-10-19T01:21:19;15.30;;;8.23;;
79027;SDS011;68427;48.476;19.102;2023-10-19T01:23:48;15.57;;;11.07;;
79027;SDS011;68427;48.476;19.102;2023-10-19T01:26:13;15.38;;;13.05;;
79027;SDS011;68427;48.476;19.102;2023-10-19T01:28:46;15.63;;;11.57;;
79027;SDS011;68427;48.476;19.102;2023-10-19T01:31:13;16.33;;;8.55;;
79027;SDS011;68427;48.476;19.102;2023-10-19T01:33:41;17.58;;;9.07;;
79027;SDS011;68427;48.476;19.102;2023-10-19T01:36:08;19.48;;;9.57;;
79027;SDS011;68427;48.476;19.102;2023-10-19T01:38:37;20.83;;;9.38;;
79027;SDS011;68427;48.476;19.102;2023-10-19T01:41:04;17.92;;;13.20;;
79027;SDS011;68427;48.476;19.102;2023-10-19T01:43:45;16.55;;;8.73;;
79027;SDS011;68427;48.476;19.102;2023-10-19T01:46:12;20.38;;;8.63;;
79027;SDS011;68427;48.476;19.102;2023-10-19T01:48:47;16.63;;;8.85;;
79027;SDS011;68427;48.476;19.102;2023-10-19T01:51:15;19.02;;;9.23;;
79027;SDS011;68427;48.476;19.102;2023-10-19T01:53:41;17.55;;;8.52;;
79027;SDS011;68427;48.476;19.102;2023-10-19T01:56:12;17.55;;;9.43;;
79027;SDS011;68427;48.476;19.102;2023-10-19T01:58:39;17.95;;;10.23;;
79027;SDS011;68427;48.476;19.102;2023-10-19T02:01:06;25.88;;;12.13;;
79027;SDS011;68427;48.476;19.102;2023-10-19T02:03:38;28.13;;;13.38;;
79027;SDS011;68427;48.476;19.102;2023-10-19T02:06:07;25.42;;;13.13;;
79027;SDS011;68427;48.476;19.102;2023-10-19T02:08:43;29.65;;;14.40;;
79027;SDS011;68427;48.476;19.102;2023-10-19T02:11:14;25.27;;;14.00;;
79027;SDS011;68427;48.476;19.102;2023-10-19T02:13:43;27.35;;;14.05;;
79027;SDS011;68427;48.476;19.102;2023-10-19T02:16:11;25.50;;;17.33;;
79027;SDS011;68427;48.476;19.102;2023-10-19T02:18:39;24.65;;;12.90;;
79027;SDS011;68427;48.476;19.102;2023-10-19T02:21:06;25.40;;;17.52;;
79027;SDS011;68427;48.476;19.102;2023-10-19T02:23:32;24.80;;;11.93;;
79027;SDS011;68427;48.476;19.102;2023-10-19T02:26:01;24.88;;;13.35;;
79027;SDS011;68427;48.476;19.102;2023-10-19T02:28:30;22.40;;;13.88;;
79027;SDS011;68427;48.476;19.102;2023-10-19T02:30:57;21.92;;;15.63;;
79027;SDS011;68427;48.476;19.102;2023-10-19T02:33:35;20.98;;;12.15;;
79027;SDS011;68427;48.476;19.102;2023-10-19T02:36:01;22.42;;;15.57;;
79027;SDS011;68427;48.476;19.102;2023-10-19T02:38:28;20.60;;;16.70;;
79027;SDS011;68427;48.476;19.102;2023-10-19T02:40:55;26.27;;;16.52;;
79027;SDS011;68427;48.476;19.102;2023-10-19T02:43:20;21.33;;;14.48;;
79027;SDS011;68427;48.476;19.102;2023-10-19T02:45:50;21.70;;;11.55;;
79027;SDS011;68427;48.476;19.102;2023-10-19T02:48:16;23.33;;;12.50;;
79027;SDS011;68427;48.476;19.102;2023-10-19T02:50:42;23.10;;;17.25;;
79027;SDS011;68427;48.476;19.102;2023-10-19T02:53:08;22.52;;;11.63;;
79027;SDS011;68427;48.476;19.102;2023-10-19T02:55:37;20.75;;;14.52;;
79027;SDS011;68427;48.476;19.102;2023-10-19T03:00:31;21.38;;;13.05;;
79027;SDS011;68427;48.476;19.102;2023-10-19T03:03:01;21.63;;;14.68;;
79027;SDS011;68427;48.476;19.102;2023-10-19T03:05:27;19.67;;;15.02;;
79027;SDS011;68427;48.476;19.102;2023-10-19T03:07:53;24.77;;;16.05;;
79027;SDS011;68427;48.476;19.102;2023-10-19T03:10:19;19.95;;;11.10;;
79027;SDS011;68427;48.476;19.102;2023-10-19T03:13:07;20.60;;;14.07;;
79027;SDS011;68427;48.476;19.102;2023-10-19T03:15:33;17.98;;;10.32;;
79027;SDS011;68427;48.476;19.102;2023-10-19T03:17:58;22.35;;;10.50;;
79027;SDS011;68427;48.476;19.102;2023-10-19T03:20:26;20.73;;;13.18;;
79027;SDS011;68427;48.476;19.102;2023-10-19T03:22:52;18.40;;;14.25;;
79027;SDS011;68427;48.476;19.102;2023-10-19T03:25:18;24.45;;;15.55;;
79027;SDS011;68427;48.476;19.102;2023-10-19T03:28:02;22.92;;;15.18;;
79027;SDS011;68427;48.476;19.102;2023-10-19T03:30:36;22.23;;;15.52;;
79027;SDS011;68427;48.476;19.102;2023-10-19T03:33:05;25.08;;;15.73;;
79027;SDS011;68427;48.476;19.102;2023-10-19T03:35:34;22.60;;;11.35;;
79027;SDS011;68427;48.476;19.102;2023-10-19T03:38:01;26.83;;;17.83;;
79027;SDS011;68427;48.476;19.102;2023-10-19T03:40:33;27.17;;;14.77;;
79027;SDS011;68427;48.476;19.102;2023-10-19T03:42:59;26.30;;;19.15;;
79027;SDS011;68427;48.476;19.102;2023-10-19T03:45:31;26.48;;;18.50;;
79027;SDS011;68427;48.476;19.102;2023-10-19T03:48:04;28.77;;;20.67;;
79027;SDS011;68427;48.476;19.102;2023-10-19T03:50:33;26.40;;;18.27;;
79027;SDS011;68427;48.476;19.102;2023-10-19T03:53:01;27.77;;;20.20;;
79027;SDS011;68427;48.476;19.102;2023-10-19T03:55:29;30.55;;;15.02;;
79027;SDS011;68427;48.476;19.102;2023-10-19T03:57:55;37.72;;;17.15;;
79027;SDS011;68427;48.476;19.102;2023-10-19T04:00:21;31.65;;;18.77;;
79027;SDS011;68427;48.476;19.102;2023-10-19T04:02:50;47.78;;;23.17;;
79027;SDS011;68427;48.476;19.102;2023-10-19T04:05:21;60.92;;;25.73;;
79027;SDS011;68427;48.476;19.102;2023-10-19T04:07:47;44.88;;;21.25;;
79027;SDS011;68427;48.476;19.102;2023-10-19T04:10:20;40.40;;;19.67;;
79027;SDS011;68427;48.476;19.102;2023-10-19T04:13:00;48.47;;;24.77;;
79027;SDS011;68427;48.476;19.102;2023-10-19T04:15:27;45.10;;;20.15;;
79027;SDS011;68427;48.476;19.102;2023-10-19T04:17:59;48.17;;;22.30;;
79027;SDS011;68427;48.476;19.102;2023-10-19T04:20:26;47.05;;;24.67;;
79027;SDS011;68427;48.476;19.102;2023-10-19T04:23:07;44.90;;;20.25;;
79027;SDS011;68427;48.476;19.102;2023-10-19T04:25:36;53.63;;;21.40;;
79027;SDS011;68427;48.476;19.102;2023-10-19T04:28:01;50.88;;;27.30;;
79027;SDS011;68427;48.476;19.102;2023-10-19T04:30:28;53.47;;;25.17;;
79027;SDS011;68427;48.476;19.102;2023-10-19T04:32:54;60.38;;;23.25;;
79027;SDS011;68427;48.476;19.102;2023-10-19T04:35:23;76.22;;;31.92;;
79027;SDS011;68427;48.476;19.102;2023-10-19T04:37:50;63.33;;;25.10;;
79027;SDS011;68427;48.476;19.102;2023-10-19T04:40:17;54.72;;;27.65;;
79027;SDS011;68427;48.476;19.102;2023-10-19T04:42:43;57.20;;;28.17;;
79027;SDS011;68427;48.476;19.102;2023-10-19T04:45:09;67.15;;;31.23;;
79027;SDS011;68427;48.476;19.102;2023-10-19T04:47:37;38.83;;;18.13;;
79027;SDS011;68427;48.476;19.102;2023-10-19T04:50:03;36.50;;;21.90;;
79027;SDS011;68427;48.476;19.102;2023-10-19T04:52:29;34.90;;;20.17;;
79027;SDS011;68427;48.476;19.102;2023-10-19T04:54:57;35.65;;;22.05;;
79027;SDS011;68427;48.476;19.102;2023-10-19T04:57:23;37.00;;;23.75;;
79027;SDS011;68427;48.476;19.102;2023-10-19T04:59:49;43.55;;;23.27;;
79027;SDS011;68427;48.476;19.102;2023-10-19T05:02:15;46.33;;;21.27;;
79027;SDS011;68427;48.476;19.102;2023-10-19T05:04:41;33.20;;;17.50;;
79027;SDS011;68427;48.476;19.102;2023-10-19T05:07:07;28.70;;;15.18;;
79027;SDS011;68427;48.476;19.102;2023-10-19T05:09:37;27.83;;;18.13;;
79027;SDS011;68427;48.476;19.102;2023-10-19T05:12:06;20.52;;;11.13;;
79027;SDS011;68427;48.476;19.102;2023-10-19T05:14:34;25.48;;;15.73;;
79027;SDS011;68427;48.476;19.102;2023-10-19T05:17:01;24.92;;;16.67;;
79027;SDS011;68427;48.476;19.102;2023-10-19T05:19:29;28.90;;;20.98;;
79027;SDS011;68427;48.476;19.102;2023-10-19T05:21:56;27.45;;;19.48;;
79027;SDS011;68427;48.476;19.102;2023-10-19T05:24:21;27.70;;;18.33;;
79027;SDS011;68427;48.476;19.102;2023-10-19T05:26:47;28.73;;;18.95;;
79027;SDS011;68427;48.476;19.102;2023-10-19T05:29:15;25.27;;;17.75;;
79027;SDS011;68427;48.476;19.102;2023-10-19T05:31:40;23.35;;;13.77;;
79027;SDS011;68427;48.476;19.102;2023-10-19T05:34:06;26.38;;;17.10;;
79027;SDS011;68427;48.476;19.102;2023-10-19T05:36:33;28.55;;;17.92;;
79027;SDS011;68427;48.476;19.102;2023-10-19T05:38:59;27.45;;;15.18;;
79027;SDS011;68427;48.476;19.102;2023-10-19T05:41:25;21.52;;;12.60;;
79027;SDS011;68427;48.476;19.102;2023-10-19T05:43:51;23.20;;;12.82;;
79027;SDS011;68427;48.476;19.102;2023-10-19T05:46:19;24.85;;;12.40;;
79027;SDS011;68427;48.476;19.102;2023-10-19T05:48:47;29.38;;;18.65;;
79027;SDS011;68427;48.476;19.102;2023-10-19T05:51:14;23.52;;;12.52;;
79027;SDS011;68427;48.476;19.102;2023-10-19T05:53:40;25.42;;;13.30;;
79027;SDS011;68427;48.476;19.102;2023-10-19T05:56:06;21.73;;;15.65;;
79027;SDS011;68427;48.476;19.102;2023-10-19T05:58:32;17.92;;;10.30;;
79027;SDS011;68427;48.476;19.102;2023-10-19T06:00:58;22.77;;;15.93;;
79027;SDS011;68427;48.476;19.102;2023-10-19T06:03:25;45.20;;;25.38;;
79027;SDS011;68427;48.476;19.102;2023-10-19T06:05:51;42.80;;;25.92;;
79027;SDS011;68427;48.476;19.102;2023-10-19T06:08:21;54.83;;;25.13;;
79027;SDS011;68427;48.476;19.102;2023-10-19T06:10:50;48.17;;;23.33;;
79027;SDS011;68427;48.476;19.102;2023-10-19T06:13:16;29.73;;;19.40;;
79027;SDS011;68427;48.476;19.102;2023-10-19T06:15:42;27.02;;;13.43;;
79027;SDS011;68427;48.476;19.102;2023-10-19T06:18:08;28.63;;;14.23;;
79027;SDS011;68427;48.476;19.102;2023-10-19T06:20:36;36.00;;;21.17;;
79027;SDS011;68427;48.476;19.102;2023-10-19T06:23:03;25.83;;;19.48;;
79027;SDS011;68427;48.476;19.102;2023-10-19T06:25:29;28.67;;;13.77;;
79027;SDS011;68427;48.476;19.102;2023-10-19T06:27:56;25.20;;;13.07;;
79027;SDS011;68427;48.476;19.102;2023-10-19T06:30:22;25.88;;;12.80;;
79027;SDS011;68427;48.476;19.102;2023-10-19T06:32:49;20.95;;;10.98;;
79027;SDS011;68427;48.476;19.102;2023-10-19T06:35:16;24.42;;;12.25;;
79027;SDS011;68427;48.476;19.102;2023-10-19T06:37:44;26.90;;;18.58;;
79027;SDS011;68427;48.476;19.102;2023-10-19T06:40:10;25.65;;;17.25;;
79027;SDS011;68427;48.476;19.102;2023-10-19T06:42:37;28.40;;;14.52;;
79027;SDS011;68427;48.476;19.102;2023-10-19T06:45:04;25.92;;;17.80;;
79027;SDS011;68427;48.476;19.102;2023-10-19T06:47:32;26.83;;;18.95;;
79027;SDS011;68427;48.476;19.102;2023-10-19T06:50:02;26.05;;;16.40;;
79027;SDS011;68427;48.476;19.102;2023-10-19T06:52:30;26.23;;;18.10;;
79027;SDS011;68427;48.476;19.102;2023-10-19T06:54:59;25.15;;;12.82;;
79027;SDS011;68427;48.476;19.102;2023-10-19T06:57:24;23.40;;;12.95;;
79027;SDS011;68427;48.476;19.102;2023-10-19T06:59:50;26.75;;;17.70;;
79027;SDS011;68427;48.476;19.102;2023-10-19T07:02:17;26.27;;;17.30;;
79027;SDS011;68427;48.476;19.102;2023-10-19T07:04:45;26.70;;;16.83;;
79027;SDS011;68427;48.476;19.102;2023-10-19T07:07:12;21.48;;;12.43;;
79027;SDS011;68427;48.476;19.102;2023-10-19T07:09:39;25.65;;;15.88;;
79027;SDS011;68427;48.476;19.102;2023-10-19T07:12:07;22.23;;;15.65;;
79027;SDS011;68427;48.476;19.102;2023-10-19T07:14:33;20.58;;;11.77;;
79027;SDS011;68427;48.476;19.102;2023-10-19T07:16:59;23.35;;;16.55;;
79027;SDS011;68427;48.476;19.102;2023-10-19T07:19:25;25.35;;;15.43;;
79027;SDS011;68427;48.476;19.102;2023-10-19T07:21:51;21.38;;;14.93;;
79027;SDS011;68427;48.476;19.102;2023-10-19T07:24:22;22.65;;;14.65;;
79027;SDS011;68427;48.476;19.102;2023-10-19T07:26:49;24.00;;;13.27;;
79027;SDS011;68427;48.476;19.102;2023-10-19T07:29:34;23.42;;;15.07;;
79027;SDS011;68427;48.476;19.102;2023-10-19T07:32:01;21.35;;;10.95;;
79027;SDS011;68427;48.476;19.102;2023-10-19T07:34:27;19.52;;;9.38;;
79027;SDS011;68427;48.476;19.102;2023-10-19T07:36:58;21.08;;;15.00;;
79027;SDS011;68427;48.476;19.102;2023-10-19T07:39:24;17.63;;;10.45;;
79027;SDS011;68427;48.476;19.102;2023-10-19T07:41:54;27.25;;;17.15;;
79027;SDS011;68427;48.476;19.102;2023-10-19T07:44:20;24.85;;;19.92;;
79027;SDS011;68427;48.476;19.102;2023-10-19T07:46:47;25.52;;;16.55;;
79027;SDS011;68427;48.476;19.102;2023-10-19T07:49:14;23.42;;;18.73;;
79027;SDS011;68427;48.476;19.102;2023-10-19T07:51:41;21.63;;;15.02;;
79027;SDS011;68427;48.476;19.102;2023-10-19T07:54:11;22.77;;;14.85;;
79027;SDS011;68427;48.476;19.102;2023-10-19T07:56:38;20.80;;;11.65;;
79027;SDS011;68427;48.476;19.102;2023-10-19T07:59:04;20.40;;;15.23;;
79027;SDS011;68427;48.476;19.102;2023-10-19T08:01:32;23.65;;;20.25;;
79027;SDS011;68427;48.476;19.102;2023-10-19T08:03:59;17.35;;;9.80;;
79027;SDS011;68427;48.476;19.102;2023-10-19T08:06:25;15.98;;;14.23;;
79027;SDS011;68427;48.476;19.102;2023-10-19T08:08:51;18.67;;;10.60;;
79027;SDS011;68427;48.476;19.102;2023-10-19T08:11:18;24.08;;;17.10;;
79027;SDS011;68427;48.476;19.102;2023-10-19T08:13:44;27.48;;;14.68;;
79027;SDS011;68427;48.476;19.102;2023-10-19T08:16:09;28.58;;;18.92;;
79027;SDS011;68427;48.476;19.102;2023-10-19T08:18:37;32.05;;;20.92;;
79027;SDS011;68427;48.476;19.102;2023-10-19T08:21:04;28.92;;;19.77;;
79027;SDS011;68427;48.476;19.102;2023-10-19T08:23:30;35.20;;;16.95;;
79027;SDS011;68427;48.476;19.102;2023-10-19T08:25:57;30.85;;;16.70;;
79027;SDS011;68427;48.476;19.102;2023-10-19T08:28:23;34.28;;;22.05;;
79027;SDS011;68427;48.476;19.102;2023-10-19T08:30:49;33.65;;;23.08;;
79027;SDS011;68427;48.476;19.102;2023-10-19T08:33:30;31.73;;;20.35;;
79027;SDS011;68427;48.476;19.102;2023-10-19T08:35:59;27.67;;;14.95;;
79027;SDS011;68427;48.476;19.102;2023-10-19T08:38:28;29.02;;;18.67;;
79027;SDS011;68427;48.476;19.102;2023-10-19T08:40:54;27.70;;;14.77;;
79027;SDS011;68427;48.476;19.102;2023-10-19T08:43:20;31.85;;;19.77;;
79027;SDS011;68427;48.476;19.102;2023-10-19T08:45:46;25.40;;;19.05;;
79027;SDS011;68427;48.476;19.102;2023-10-19T08:48:12;24.15;;;15.38;;
79027;SDS011;68427;48.476;19.102;2023-10-19T08:50:39;21.30;;;11.63;;
79027;SDS011;68427;48.476;19.102;2023-10-19T08:53:06;22.42;;;15.18;;
79027;SDS011;68427;48.476;19.102;2023-10-19T08:55:35;17.83;;;9.48;;
79027;SDS011;68427;48.476;19.102;2023-10-19T08:58:01;18.40;;;10.85;;
79027;SDS011;68427;48.476;19.102;2023-10-19T09:00:42;16.13;;;12.93;;
79027;SDS011;68427;48.476;19.102;2023-10-19T09:03:12;14.70;;;12.45;;
79027;SDS011;68427;48.476;19.102;2023-10-19T09:05:39;16.15;;;12.88;;
79027;SDS011;68427;48.476;19.102;2023-10-19T09:08:05;19.13;;;13.07;;
79027;SDS011;68427;48.476;19.102;2023-10-19T09:10:31;14.75;;;8.95;;
79027;SDS011;68427;48.476;19.102;2023-10-19T09:13:00;18.48;;;14.15;;
79027;SDS011;68427;48.476;19.102;2023-10-19T09:15:27;19.55;;;15.13;;
79027;SDS011;68427;48.476;19.102;2023-10-19T09:17:55;18.60;;;9.52;;
79027;SDS011;68427;48.476;19.102;2023-10-19T09:20:21;16.98;;;12.32;;
79027;SDS011;68427;48.476;19.102;2023-10-19T09:22:53;17.50;;;8.85;;
79027;SDS011;68427;48.476;19.102;2023-10-19T09:25:20;16.20;;;13.15;;
79027;SDS011;68427;48.476;19.102;2023-10-19T09:27:46;13.60;;;7.90;;
79027;SDS011;68427;48.476;19.102;2023-10-19T09:30:14;17.48;;;10.10;;
79027;SDS011;68427;48.476;19.102;2023-10-19T09:32:45;17.77;;;12.63;;
79027;SDS011;68427;48.476;19.102;2023-10-19T09:35:12;22.75;;;12.60;;
79027;SDS011;68427;48.476;19.102;2023-10-19T09:37:40;20.83;;;11.98;;
79027;SDS011;68427;48.476;19.102;2023-10-19T09:40:07;16.52;;;10.27;;
79027;SDS011;68427;48.476;19.102;2023-10-19T09:42:38;21.20;;;15.00;;
79027;SDS011;68427;48.476;19.102;2023-10-19T09:45:11;22.73;;;12.52;;
79027;SDS011;68427;48.476;19.102;2023-10-19T09:47:39;21.95;;;15.57;;
79027;SDS011;68427;48.476;19.102;2023-10-19T09:50:11;21.92;;;16.52;;
79027;SDS011;68427;48.476;19.102;2023-10-19T09:52:37;25.90;;;16.40;;
79027;SDS011;68427;48.476;19.102;2023-10-19T09:55:06;30.50;;;20.20;;
79027;SDS011;68427;48.476;19.102;2023-10-19T09:57:37;25.15;;;14.68;;
79027;SDS011;68427;48.476;19.102;2023-10-19T10:00:11;26.67;;;18.30;;
79027;SDS011;68427;48.476;19.102;2023-10-19T10:02:39;26.77;;;16.30;;
79027;SDS011;68427;48.476;19.102;2023-10-19T10:10:57;27.08;;;19.40;;
79027;SDS011;68427;48.476;19.102;2023-10-19T10:13:35;24.20;;;16.63;;
79027;SDS011;68427;48.476;19.102;2023-10-19T10:16:01;34.55;;;18.00;;
79027;SDS011;68427;48.476;19.102;2023-10-19T10:18:31;33.50;;;23.35;;
79027;SDS011;68427;48.476;19.102;2023-10-19T10:21:04;37.85;;;26.15;;
79027;SDS011;68427;48.476;19.102;2023-10-19T10:23:35;24.30;;;18.15;;
79027;SDS011;68427;48.476;19.102;2023-10-19T10:26:06;24.95;;;17.02;;
79027;SDS011;68427;48.476;19.102;2023-10-19T10:28:34;26.25;;;14.70;;
79027;SDS011;68427;48.476;19.102;2023-10-19T10:31:07;26.80;;;14.57;;
79027;SDS011;68427;48.476;19.102;2023-10-19T10:33:41;25.98;;;17.42;;
79027;SDS011;68427;48.476;19.102;2023-10-19T10:36:12;22.00;;;14.70;;
79027;SDS011;68427;48.476;19.102;2023-10-19T10:38:38;21.75;;;16.50;;
79027;SDS011;68427;48.476;19.102;2023-10-19T10:41:05;20.88;;;15.65;;
79027;SDS011;68427;48.476;19.102;2023-10-19T10:43:47;27.35;;;17.25;;
79027;SDS011;68427;48.476;19.102;2023-10-19T10:46:22;25.02;;;14.27;;
79027;SDS011;68427;48.476;19.102;2023-10-19T10:48:50;33.40;;;19.70;;
79027;SDS011;68427;48.476;19.102;2023-10-19T10:51:20;31.02;;;17.60;;
79027;SDS011;68427;48.476;19.102;2023-10-19T10:53:47;34.50;;;28.15;;
79027;SDS011;68427;48.476;19.102;2023-10-19T10:56:15;35.33;;;21.40;;
79027;SDS011;68427;48.476;19.102;2023-10-19T10:58:42;36.75;;;24.35;;
79027;SDS011;68427;48.476;19.102;2023-10-19T11:01:08;36.00;;;25.20;;
79027;SDS011;68427;48.476;19.102;2023-10-19T11:03:35;41.83;;;27.05;;
79027;SDS011;68427;48.476;19.102;2023-10-19T11:06:06;40.47;;;23.92;;
79027;SDS011;68427;48.476;19.102;2023-10-19T11:08:35;41.35;;;23.23;;
79027;SDS011;68427;48.476;19.102;2023-10-19T11:11:02;49.10;;;31.52;;
79027;SDS011;68427;48.476;19.102;2023-10-19T11:13:29;44.65;;;29.55;;
79027;SDS011;68427;48.476;19.102;2023-10-19T11:15:58;31.35;;;18.50;;
79027;SDS011;68427;48.476;19.102;2023-10-19T11:18:29;32.20;;;23.25;;
79027;SDS011;68427;48.476;19.102;2023-10-19T11:20:57;33.45;;;18.75;;
79027;SDS011;68427;48.476;19.102;2023-10-19T11:23:35;35.80;;;26.55;;
79027;SDS011;68427;48.476;19.102;2023-10-19T11:26:02;30.88;;;23.90;;
79027;SDS011;68427;48.476;19.102;2023-10-19T11:28:29;32.55;;;23.02;;
79027;SDS011;68427;48.476;19.102;2023-10-19T11:31:09;34.40;;;22.83;;
79027;SDS011;68427;48.476;19.102;2023-10-19T11:33:37;26.85;;;16.20;;
79027;SDS011;68427;48.476;19.102;2023-10-19T11:38:29;23.42;;;13.40;;
79027;SDS011;68427;48.476;19.102;2023-10-19T11:40:58;27.13;;;14.50;;
79027;SDS011;68427;48.476;19.102;2023-10-19T11:43:24;29.88;;;19.98;;
79027;SDS011;68427;48.476;19.102;2023-10-19T11:45:49;24.35;;;16.75;;
79027;SDS011;68427;48.476;19.102;2023-10-19T11:48:15;13.50;;;9.30;;
79027;SDS011;68427;48.476;19.102;2023-10-19T11:50:41;16.23;;;9.98;;
79027;SDS011;68427;48.476;19.102;2023-10-19T11:53:07;15.52;;;11.13;;
79027;SDS011;68427;48.476;19.102;2023-10-19T11:55:35;16.92;;;11.60;;
79027;SDS011;68427;48.476;19.102;2023-10-19T11:58:02;17.13;;;13.75;;
79027;SDS011;68427;48.476;19.102;2023-10-19T12:00:29;17.33;;;13.52;;
79027;SDS011;68427;48.476;19.102;2023-10-19T12:03:03;16.98;;;10.55;;
79027;SDS011;68427;48.476;19.102;2023-10-19T12:05:29;15.48;;;12.80;;
79027;SDS011;68427;48.476;19.102;2023-10-19T12:07:55;15.48;;;12.93;;
79027;SDS011;68427;48.476;19.102;2023-10-19T12:10:22;14.48;;;9.65;;
79027;SDS011;68427;48.476;19.102;2023-10-19T12:13:01;15.93;;;8.95;;
79027;SDS011;68427;48.476;19.102;2023-10-19T12:15:29;12.70;;;8.75;;
79027;SDS011;68427;48.476;19.102;2023-10-19T12:20:21;10.25;;;9.15;;
79027;SDS011;68427;48.476;19.102;2023-10-19T12:22:49;10.05;;;6.72;;
79027;SDS011;68427;48.476;19.102;2023-10-19T12:25:19;13.30;;;10.50;;
79027;SDS011;68427;48.476;19.102;2023-10-19T12:27:45;7.90;;;5.65;;
79027;SDS011;68427;48.476;19.102;2023-10-19T12:30:12;9.23;;;5.97;;
79027;SDS011;68427;48.476;19.102;2023-10-19T12:32:51;10.95;;;8.82;;
79027;SDS011;68427;48.476;19.102;2023-10-19T12:35:17;9.65;;;7.15;;
79027;SDS011;68427;48.476;19.102;2023-10-19T12:37:50;10.98;;;5.95;;
79027;SDS011;68427;48.476;19.102;2023-10-19T12:40:17;11.73;;;10.55;;
79027;SDS011;68427;48.476;19.102;2023-10-19T12:42:52;12.63;;;10.25;;
79027;SDS011;68427;48.476;19.102;2023-10-19T12:45:24;8.75;;;6.03;;
79027;SDS011;68427;48.476;19.102;2023-10-19T12:47:50;11.73;;;7.35;;
79027;SDS011;68427;48.476;19.102;2023-10-19T12:50:19;13.77;;;9.77;;
79027;SDS011;68427;48.476;19.102;2023-10-19T12:52:50;13.57;;;10.98;;
79027;SDS011;68427;48.476;19.102;2023-10-19T12:55:16;12.48;;;10.75;;
79027;SDS011;68427;48.476;19.102;2023-10-19T12:57:42;12.88;;;10.25;;
79027;SDS011;68427;48.476;19.102;2023-10-19T13:00:09;12.90;;;10.55;;
79027;SDS011;68427;48.476;19.102;2023-10-19T13:03:12;13.63;;;11.32;;
79027;SDS011;68427;48.476;19.102;2023-10-19T13:05:41;14.80;;;11.90;;
79027;SDS011;68427;48.476;19.102;2023-10-19T13:08:09;13.10;;;11.15;;
79027;SDS011;68427;48.476;19.102;2023-10-19T13:10:38;11.20;;;7.43;;
79027;SDS011;68427;48.476;19.102;2023-10-19T13:13:07;14.98;;;13.43;;
79027;SDS011;68427;48.476;19.102;2023-10-19T13:15:36;12.20;;;8.52;;
79027;SDS011;68427;48.476;19.102;2023-10-19T13:18:03;13.95;;;11.30;;
79027;SDS011;68427;48.476;19.102;2023-10-19T13:20:36;12.38;;;8.30;;
79027;SDS011;68427;48.476;19.102;2023-10-19T13:23:04;19.42;;;13.65;;
79027;SDS011;68427;48.476;19.102;2023-10-19T13:25:32;12.90;;;7.82;;
79027;SDS011;68427;48.476;19.102;2023-10-19T13:28:13;17.00;;;14.80;;
79027;SDS011;68427;48.476;19.102;2023-10-19T13:30:39;21.80;;;17.73;;
79027;SDS011;68427;48.476;19.102;2023-10-19T13:33:06;18.05;;;10.73;;
79027;SDS011;68427;48.476;19.102;2023-10-19T13:35:35;19.40;;;15.93;;
79027;SDS011;68427;48.476;19.102;2023-10-19T13:38:02;17.10;;;13.48;;
79027;SDS011;68427;48.476;19.102;2023-10-19T13:40:29;18.92;;;14.45;;
79027;SDS011;68427;48.476;19.102;2023-10-19T13:42:55;13.45;;;9.60;;
79027;SDS011;68427;48.476;19.102;2023-10-19T13:45:21;15.15;;;10.02;;
79027;SDS011;68427;48.476;19.102;2023-10-19T13:47:47;13.02;;;9.25;;
79027;SDS011;68427;48.476;19.102;2023-10-19T13:50:12;15.77;;;12.82;;
79027;SDS011;68427;48.476;19.102;2023-10-19T13:52:40;16.30;;;12.90;;
79027;SDS011;68427;48.476;19.102;2023-10-19T13:55:06;13.98;;;8.55;;
79027;SDS011;68427;48.476;19.102;2023-10-19T13:57:33;16.13;;;11.70;;
79027;SDS011;68427;48.476;19.102;2023-10-19T13:59:59;16.92;;;12.75;;
79027;SDS011;68427;48.476;19.102;2023-10-19T14:02:26;18.23;;;14.18;;
79027;SDS011;68427;48.476;19.102;2023-10-19T14:04:52;16.48;;;13.45;;
79027;SDS011;68427;48.476;19.102;2023-10-19T14:07:18;15.18;;;13.23;;
79027;SDS011;68427;48.476;19.102;2023-10-19T14:09:46;14.07;;;10.73;;
79027;SDS011;68427;48.476;19.102;2023-10-19T14:12:12;13.52;;;8.32;;
79027;SDS011;68427;48.476;19.102;2023-10-19T14:14:38;14.65;;;7.85;;
79027;SDS011;68427;48.476;19.102;2023-10-19T14:17:04;13.20;;;10.98;;
79027;SDS011;68427;48.476;19.102;2023-10-19T14:19:30;13.05;;;11.70;;
79027;SDS011;68427;48.476;19.102;2023-10-19T14:21:56;14.98;;;12.30;;
79027;SDS011;68427;48.476;19.102;2023-10-19T14:24:22;14.50;;;8.90;;
79027;SDS011;68427;48.476;19.102;2023-10-19T14:26:49;13.25;;;9.07;;
79027;SDS011;68427;48.476;19.102;2023-10-19T14:29:15;16.00;;;8.68;;
79027;SDS011;68427;48.476;19.102;2023-10-19T14:31:40;15.40;;;10.88;;